Time;durP1;ratioP1;P1;durP2;ratioP2;P2;SDS_P1;SDS_P2;PMS_P1;PMS_P2;Temp;Humidity;BMP_temperature;BMP_pressure;BME280_temperature;BME280_humidity;BME280_pressure;Samples;Min_cycle;Max_cycle;Signal;HPM_P1;HPM_P2
2021/07/09 00:01:14;;;;;;;6.60;6.00;;;19.70;99.90;;;;;;5007038;28;20449;-83
2021/07/09 00:03:42;;;;;;;6.60;6.00;;;20.00;99.90;;;;;;5015293;28;20454;-83
2021/07/09 00:06:08;;;;;;;7.20;5.73;;;20.00;99.90;;;;;;4997645;28;20454;-84
2021/07/09 00:08:35;;;;;;;6.87;5.60;;;20.00;99.90;;;;;;5007158;28;20458;-84
2021/07/09 00:11:02;;;;;;;7.37;5.80;;;20.00;99.90;;;;;;4995140;28;20803;-83
2021/07/09 00:13:29;;;;;;;5.90;5.30;;;19.80;99.90;;;;;;5007241;28;20533;-83
2021/07/09 00:15:56;;;;;;;6.27;5.77;;;20.00;99.90;;;;;;5014647;28;20517;-83
2021/07/09 00:18:22;;;;;;;8.93;6.30;;;20.10;99.90;;;;;;4987643;28;20517;-83
2021/07/09 00:20:49;;;;;;;7.83;6.60;;;20.30;99.90;;;;;;4995033;28;20505;-84
2021/07/09 00:23:16;;;;;;;7.00;6.40;;;20.30;99.90;;;;;;4977400;28;20486;-84
2021/07/09 00:25:42;;;;;;;6.87;6.20;;;20.40;99.90;;;;;;4994643;28;20447;-83
2021/07/09 00:28:09;;;;;;;6.90;6.33;;;20.10;99.90;;;;;;4995073;28;20474;-84
2021/07/09 00:30:36;;;;;;;8.00;6.03;;;20.00;99.90;;;;;;4976968;28;21326;-83
2021/07/09 00:33:02;;;;;;;7.43;6.83;;;20.20;99.90;;;;;;4976678;28;20501;-85
2021/07/09 00:35:29;;;;;;;6.13;5.53;;;20.10;99.90;;;;;;4976746;28;20454;-83
2021/07/09 00:37:56;;;;;;;8.20;6.80;;;20.00;99.90;;;;;;5012115;28;20480;-83
2021/07/09 00:40:23;;;;;;;7.33;6.63;;;20.10;99.90;;;;;;5005979;28;20953;-84
2021/07/09 00:42:49;;;;;;;6.87;6.27;;;19.90;99.90;;;;;;5010340;28;20441;-83
2021/07/09 00:45:16;;;;;;;7.00;5.80;;;19.80;99.90;;;;;;4992841;28;20493;-82
2021/07/09 00:47:44;;;;;;;6.07;5.43;;;20.10;99.90;;;;;;4986403;28;20488;-83
2021/07/09 00:50:12;;;;;;;6.50;5.90;;;19.90;99.90;;;;;;5013221;28;20477;-84
2021/07/09 00:52:39;;;;;;;9.00;6.03;;;20.10;99.90;;;;;;4993708;28;20541;-83
2021/07/09 00:55:07;;;;;;;6.53;5.93;;;20.00;99.90;;;;;;5014521;28;20491;-84
2021/07/09 00:57:39;;;;;;;7.53;6.60;;;20.00;99.90;;;;;;4996736;28;20465;-84
2021/07/09 01:00:09;;;;;;;6.97;6.27;;;20.10;99.90;;;;;;5002815;28;20489;-84
2021/07/09 01:02:36;;;;;;;6.97;6.37;;;19.90;99.90;;;;;;5006784;28;20446;-83
2021/07/09 01:05:09;;;;;;;7.03;6.40;;;20.20;99.90;;;;;;4980095;28;20481;-83
2021/07/09 01:07:37;;;;;;;7.40;6.60;;;20.20;99.90;;;;;;5013883;28;20455;-82
2021/07/09 01:10:15;;;;;;;7.20;6.07;;;20.20;99.90;;;;;;4995996;28;20490;-84
2021/07/09 01:12:46;;;;;;;7.80;7.00;;;20.10;99.90;;;;;;4983472;28;20455;-83
2021/07/09 01:15:14;;;;;;;7.13;6.30;;;19.80;99.90;;;;;;4978865;28;20497;-83
2021/07/09 01:17:41;;;;;;;6.67;6.10;;;19.80;99.90;;;;;;4981190;28;20447;-82
2021/07/09 01:20:11;;;;;;;7.10;6.40;;;19.80;99.90;;;;;;5022627;28;20558;-84
2021/07/09 01:22:42;;;;;;;7.87;7.20;;;19.80;99.90;;;;;;5031040;28;20454;-85
2021/07/09 01:25:30;;;;;;;8.90;8.00;;;19.80;99.90;;;;;;5027106;28;20449;-85
2021/07/09 01:28:01;;;;;;;7.73;6.93;;;19.70;99.90;;;;;;4992700;28;20466;-83
2021/07/09 01:30:28;;;;;;;8.63;6.80;;;19.60;99.90;;;;;;5003738;28;20479;-83
2021/07/09 01:32:56;;;;;;;8.10;7.30;;;19.40;99.90;;;;;;5002024;28;20458;-83
2021/07/09 01:35:26;;;;;;;6.67;6.03;;;19.50;99.90;;;;;;5037556;28;20987;-84
2021/07/09 01:38:07;;;;;;;8.30;7.07;;;19.50;99.90;;;;;;5000209;28;20783;-84
2021/07/09 01:40:36;;;;;;;8.03;7.10;;;19.50;99.90;;;;;;4995314;28;20545;-84
2021/07/09 01:43:05;;;;;;;7.23;6.53;;;19.60;99.90;;;;;;4993349;28;20467;-84
2021/07/09 01:45:31;;;;;;;10.40;7.10;;;19.50;99.90;;;;;;4994264;28;20498;-83
2021/07/09 01:47:58;;;;;;;6.53;6.03;;;19.40;99.90;;;;;;4997386;28;20450;-83
2021/07/09 01:50:26;;;;;;;7.23;6.53;;;19.40;99.90;;;;;;5018583;28;20477;-84
2021/07/09 01:52:53;;;;;;;7.73;6.90;;;19.40;99.90;;;;;;5031851;28;20655;-84
2021/07/09 01:55:21;;;;;;;7.77;6.87;;;19.60;99.90;;;;;;5013554;28;20458;-83
2021/07/09 01:57:48;;;;;;;6.67;5.93;;;19.50;99.90;;;;;;5007529;28;20451;-84
2021/07/09 02:00:19;;;;;;;8.00;7.20;;;19.70;99.90;;;;;;5011384;28;20493;-82
2021/07/09 02:02:46;;;;;;;7.27;6.57;;;19.90;99.90;;;;;;4994193;28;20455;-83
2021/07/09 02:05:15;;;;;;;8.80;6.43;;;19.90;99.90;;;;;;5027044;28;20454;-83
2021/07/09 02:07:44;;;;;;;7.40;6.70;;;20.00;99.90;;;;;;5025942;28;20455;-85
2021/07/09 02:10:12;;;;;;;8.07;7.27;;;20.10;99.90;;;;;;5028215;28;20482;-85
2021/07/09 02:12:41;;;;;;;9.77;6.90;;;20.00;99.90;;;;;;5036707;28;20446;-83
2021/07/09 02:15:11;;;;;;;8.50;6.77;;;19.70;99.90;;;;;;5037572;28;20449;-85
2021/07/09 02:17:39;;;;;;;9.30;6.30;;;19.70;99.90;;;;;;5020529;28;20454;-83
2021/07/09 02:20:07;;;;;;;9.30;7.37;;;19.50;99.90;;;;;;4977737;28;20483;-84
2021/07/09 02:22:35;;;;;;;9.03;6.40;;;19.50;99.90;;;;;;4976731;28;20454;-84
2021/07/09 02:25:05;;;;;;;7.80;7.00;;;19.40;99.90;;;;;;4994079;28;20447;-83
2021/07/09 02:27:34;;;;;;;12.50;7.10;;;19.40;99.90;;;;;;4989549;28;20478;-83
2021/07/09 02:30:04;;;;;;;6.77;5.97;;;19.40;99.90;;;;;;4994558;28;21028;-82
2021/07/09 02:32:31;;;;;;;10.33;7.00;;;19.40;99.90;;;;;;5012953;28;20458;-83
2021/07/09 02:34:58;;;;;;;7.23;6.03;;;19.30;99.90;;;;;;5015841;28;20513;-84
2021/07/09 02:37:24;;;;;;;8.80;6.00;;;19.30;99.90;;;;;;4999196;28;20466;-84
2021/07/09 02:39:51;;;;;;;7.17;6.47;;;19.40;99.90;;;;;;4981881;28;20486;-83
2021/07/09 02:42:18;;;;;;;7.77;6.40;;;19.40;99.90;;;;;;4981001;28;20451;-83
2021/07/09 02:44:44;;;;;;;7.87;6.23;;;19.40;99.90;;;;;;4981842;28;20471;-85
2021/07/09 02:47:11;;;;;;;6.53;5.93;;;19.40;99.90;;;;;;5001487;28;21072;-83
2021/07/09 02:49:38;;;;;;;9.47;6.50;;;19.40;99.90;;;;;;5012268;28;20549;-84
2021/07/09 02:52:06;;;;;;;6.93;5.50;;;19.40;99.90;;;;;;4993837;28;20455;-83
2021/07/09 02:54:32;;;;;;;8.03;7.30;;;19.40;99.90;;;;;;4992259;28;21034;-84
2021/07/09 02:57:02;;;;;;;8.93;6.90;;;19.30;99.90;;;;;;4993734;28;20458;-84
2021/07/09 02:59:29;;;;;;;8.57;7.00;;;19.30;99.90;;;;;;5008252;28;20497;-84
2021/07/09 03:01:55;;;;;;;9.87;7.50;;;19.20;99.90;;;;;;4989580;28;20826;-84
2021/07/09 03:04:22;;;;;;;8.60;7.77;;;19.20;99.90;;;;;;4996290;28;20832;-83
2021/07/09 03:06:49;;;;;;;13.43;7.70;;;19.20;99.90;;;;;;5002937;28;20442;-83
2021/07/09 03:09:16;;;;;;;10.40;7.97;;;19.20;99.90;;;;;;4995575;28;20494;-84
2021/07/09 03:11:45;;;;;;;20.97;8.57;;;19.10;99.90;;;;;;5010273;28;20460;-84
2021/07/09 03:14:14;;;;;;;10.93;8.13;;;19.10;99.90;;;;;;5035461;28;20544;-85
2021/07/09 03:16:41;;;;;;;11.93;8.70;;;19.10;99.90;;;;;;5020518;28;21034;-83
2021/07/09 03:19:08;;;;;;;12.33;7.90;;;19.10;99.90;;;;;;5014874;28;20478;-83
2021/07/09 03:21:35;;;;;;;14.00;8.33;;;19.00;99.90;;;;;;5010966;28;20573;-85
2021/07/09 03:24:03;;;;;;;23.33;21.13;;;19.10;99.90;;;;;;4983010;28;20447;-83
2021/07/09 03:26:31;;;;;;;18.67;9.30;;;19.00;99.90;;;;;;4998590;28;20455;-82
2021/07/09 03:28:57;;;;;;;11.73;9.77;;;19.00;99.90;;;;;;5013756;28;21089;-84
2021/07/09 03:31:28;;;;;;;11.80;9.30;;;19.10;99.90;;;;;;5014591;28;20470;-83
2021/07/09 03:33:55;;;;;;;9.63;8.63;;;19.10;99.90;;;;;;5012385;28;20544;-81
2021/07/09 03:36:22;;;;;;;11.03;9.20;;;19.10;99.90;;;;;;5010489;28;20464;-82
2021/07/09 03:38:49;;;;;;;16.57;12.47;;;19.10;99.90;;;;;;4990719;28;20643;-82
2021/07/09 03:41:16;;;;;;;12.93;11.63;;;18.90;99.90;;;;;;5007477;28;20518;-82
2021/07/09 03:43:44;;;;;;;15.57;12.00;;;18.90;99.90;;;;;;5033423;28;20444;-83
2021/07/09 03:46:12;;;;;;;17.63;11.50;;;18.90;99.90;;;;;;5007847;28;20473;-82
2021/07/09 03:48:39;;;;;;;14.83;12.73;;;18.90;99.90;;;;;;5010648;28;20458;-83
2021/07/09 03:51:07;;;;;;;14.07;12.13;;;18.90;99.90;;;;;;5013158;28;20453;-83
2021/07/09 03:53:34;;;;;;;12.63;11.33;;;18.90;99.90;;;;;;5014851;28;20453;-81
2021/07/09 03:56:02;;;;;;;13.93;12.40;;;18.90;99.90;;;;;;4999963;28;20461;-83
2021/07/09 03:58:32;;;;;;;16.50;13.10;;;18.90;99.90;;;;;;4991497;28;20469;-84
2021/07/09 04:00:58;;;;;;;16.43;14.70;;;19.00;99.90;;;;;;5027844;28;20483;-83
2021/07/09 04:03:25;;;;;;;15.60;14.07;;;19.00;99.90;;;;;;5030984;28;20531;-81
2021/07/09 04:05:52;;;;;;;15.20;13.60;;;19.00;99.90;;;;;;5030585;28;20449;-83
2021/07/09 04:08:19;;;;;;;17.67;14.47;;;19.00;99.90;;;;;;5007194;28;20545;-83
2021/07/09 04:10:45;;;;;;;15.87;14.27;;;18.90;99.90;;;;;;4319674;28;10000692;-82
2021/07/09 04:13:13;;;;;;;15.00;13.47;;;18.90;99.90;;;;;;5006786;28;20212;-83
2021/07/09 04:15:40;;;;;;;17.13;14.10;;;18.90;99.90;;;;;;4989145;28;20451;-83
2021/07/09 04:18:07;;;;;;;17.53;15.23;;;18.90;99.90;;;;;;4995586;28;20830;-84
2021/07/09 04:20:34;;;;;;;22.73;14.43;;;18.90;99.90;;;;;;5013031;28;20577;-82
2021/07/09 04:23:00;;;;;;;17.67;13.97;;;18.90;99.90;;;;;;5007362;28;20455;-82
2021/07/09 04:25:27;;;;;;;17.03;15.43;;;18.90;99.90;;;;;;5009902;28;20461;-84
2021/07/09 04:27:54;;;;;;;22.17;16.63;;;18.90;99.90;;;;;;4991476;28;20458;-82
2021/07/09 04:30:21;;;;;;;17.57;15.87;;;18.80;99.90;;;;;;4984669;28;20492;-83
2021/07/09 04:32:50;;;;;;;18.73;15.80;;;18.90;99.90;;;;;;4988801;28;20529;-84
2021/07/09 04:35:16;;;;;;;16.83;14.40;;;18.90;99.90;;;;;;5018088;28;20466;-80
2021/07/09 04:37:43;;;;;;;21.90;15.03;;;18.90;99.90;;;;;;5020578;28;20437;-84
2021/07/09 04:40:11;;;;;;;19.63;15.97;;;18.90;99.90;;;;;;5005929;28;20931;-83
2021/07/09 04:42:38;;;;;;;18.77;16.50;;;18.90;99.90;;;;;;5004072;28;20423;-82
2021/07/09 04:45:06;;;;;;;17.97;15.77;;;18.90;99.90;;;;;;5033029;28;20450;-84
2021/07/09 04:47:32;;;;;;;18.83;16.20;;;18.90;99.90;;;;;;5022400;28;20442;-83
2021/07/09 04:49:59;;;;;;;19.50;15.33;;;18.80;99.90;;;;;;4994448;28;20489;-83
2021/07/09 04:52:26;;;;;;;20.37;17.50;;;18.80;99.90;;;;;;5003277;28;20550;-82
2021/07/09 04:54:53;;;;;;;19.57;16.17;;;18.80;99.90;;;;;;5005512;28;21195;-83
2021/07/09 04:57:21;;;;;;;23.67;16.80;;;18.80;99.90;;;;;;5005415;28;20963;-82
2021/07/09 04:59:47;;;;;;;21.10;16.53;;;18.80;99.90;;;;;;5013345;28;20486;-83
2021/07/09 05:02:14;;;;;;;23.60;17.77;;;18.90;99.90;;;;;;5009573;28;20473;-83
2021/07/09 05:04:41;;;;;;;20.70;17.50;;;18.90;99.90;;;;;;4997967;28;20454;-83
2021/07/09 05:07:08;;;;;;;19.37;17.23;;;18.90;99.90;;;;;;4994112;28;20450;-83
2021/07/09 05:09:34;;;;;;;18.23;16.43;;;18.80;99.90;;;;;;5011245;28;20485;-82
2021/07/09 05:12:01;;;;;;;20.87;18.03;;;18.80;99.90;;;;;;5013911;28;20435;-83
2021/07/09 05:14:28;;;;;;;19.30;17.20;;;18.80;99.90;;;;;;5013782;28;20469;-83
2021/07/09 05:16:55;;;;;;;20.53;16.37;;;18.70;99.90;;;;;;5013759;28;20604;-84
2021/07/09 05:19:22;;;;;;;22.13;18.10;;;18.70;99.90;;;;;;4996334;28;20487;-83
2021/07/09 05:21:49;;;;;;;19.50;17.57;;;18.70;99.90;;;;;;4992614;28;20487;-84
2021/07/09 05:24:24;;;;;;;20.13;18.13;;;18.70;99.90;;;;;;4993732;28;20858;-84
2021/07/09 05:26:51;;;;;;;19.83;17.63;;;18.60;99.90;;;;;;4994730;28;20459;-83
2021/07/09 05:29:18;;;;;;;23.17;18.83;;;18.60;99.90;;;;;;4994577;28;20500;-83
2021/07/09 05:31:45;;;;;;;19.87;17.97;;;18.60;99.90;;;;;;4994087;28;20553;-83
2021/07/09 05:34:12;;;;;;;20.70;18.37;;;18.60;99.90;;;;;;4993862;28;20478;-83
2021/07/09 05:36:39;;;;;;;25.03;18.00;;;18.60;99.90;;;;;;4997607;28;20946;-83
2021/07/09 05:39:06;;;;;;;22.10;16.90;;;18.60;99.90;;;;;;4997107;28;20467;-83
2021/07/09 05:41:34;;;;;;;22.77;18.30;;;18.60;99.90;;;;;;4977859;28;20483;-84
2021/07/09 05:44:00;;;;;;;20.40;17.60;;;18.60;99.90;;;;;;5009342;28;20485;-81
2021/07/09 05:46:27;;;;;;;19.73;17.63;;;18.70;99.90;;;;;;5013830;28;21127;-82
2021/07/09 05:48:54;;;;;;;19.63;17.50;;;18.70;99.90;;;;;;5013884;28;20839;-83
2021/07/09 05:51:21;;;;;;;20.00;18.10;;;18.70;99.90;;;;;;5013778;28;20463;-83
2021/07/09 05:53:47;;;;;;;22.17;17.30;;;18.70;99.90;;;;;;5004031;28;21227;-82
2021/07/09 05:56:14;;;;;;;20.90;18.77;;;18.80;99.90;;;;;;4994075;28;20482;-84
2021/07/09 05:58:41;;;;;;;21.30;19.20;;;18.80;99.90;;;;;;4993745;28;20932;-82
2021/07/09 06:01:08;;;;;;;20.43;18.33;;;18.80;99.90;;;;;;4993284;28;20526;-82
2021/07/09 06:03:34;;;;;;;20.60;18.50;;;18.80;99.90;;;;;;5005474;28;20464;-83
2021/07/09 06:06:01;;;;;;;21.17;18.83;;;18.90;99.90;;;;;;5012899;28;20454;-81
2021/07/09 06:08:29;;;;;;;21.03;18.90;;;18.90;99.90;;;;;;5014198;28;20450;-82
2021/07/09 06:10:57;;;;;;;19.47;17.57;;;19.00;99.90;;;;;;4994762;28;20454;-81
2021/07/09 06:13:25;;;;;;;26.17;16.80;;;19.10;99.90;;;;;;4995109;28;20496;-82
2021/07/09 06:15:52;;;;;;;18.70;16.80;;;19.10;99.90;;;;;;5013477;28;20544;-82
2021/07/09 06:18:19;;;;;;;19.20;16.70;;;19.20;99.90;;;;;;4995733;28;21038;-84
2021/07/09 06:20:46;;;;;;;22.40;18.33;;;19.20;99.90;;;;;;5012841;28;20937;-83
2021/07/09 06:23:13;;;;;;;18.63;16.87;;;19.20;99.90;;;;;;5011347;28;20465;-82
2021/07/09 06:25:40;;;;;;;23.40;19.30;;;19.20;99.90;;;;;;5012050;28;20867;-82
2021/07/09 06:28:07;;;;;;;22.97;20.57;;;19.20;99.90;;;;;;4993734;28;20529;-79
2021/07/09 06:30:34;;;;;;;23.60;18.97;;;19.30;99.90;;;;;;5011280;28;20493;-82
2021/07/09 06:33:01;;;;;;;21.70;18.77;;;19.30;99.90;;;;;;4992971;28;20464;-81
2021/07/09 06:35:31;;;;;;;23.10;20.03;;;19.30;99.90;;;;;;5025735;28;20552;-82
2021/07/09 06:37:58;;;;;;;22.40;20.07;;;19.30;99.90;;;;;;4998730;28;20439;-83
2021/07/09 06:40:25;;;;;;;21.77;19.53;;;19.30;99.90;;;;;;4995637;28;20492;-85
2021/07/09 06:42:53;;;;;;;21.20;18.53;;;19.30;99.90;;;;;;4995129;28;20557;-83
2021/07/09 06:45:20;;;;;;;21.87;19.57;;;19.30;99.90;;;;;;5014448;28;20455;-84
2021/07/09 06:47:47;;;;;;;21.73;19.73;;;19.30;99.90;;;;;;5012726;28;20455;-83
2021/07/09 06:50:14;;;;;;;22.77;20.47;;;19.40;99.90;;;;;;4995086;28;20609;-85
2021/07/09 06:52:42;;;;;;;24.30;19.47;;;19.40;99.90;;;;;;4995689;28;20449;-82
2021/07/09 06:55:18;;;;;;;22.90;20.10;;;19.50;99.90;;;;;;4995656;28;20459;-83
2021/07/09 06:57:51;;;;;;;25.00;22.43;;;19.60;99.90;;;;;;4997317;28;20477;-83
2021/07/09 07:00:26;;;;;;;24.53;22.07;;;19.70;99.90;;;;;;4996992;28;20513;-84
2021/07/09 07:02:56;;;;;;;24.63;21.97;;;19.80;99.90;;;;;;5014831;28;20450;-84
2021/07/09 07:05:27;;;;;;;26.20;23.70;;;19.80;99.90;;;;;;4997204;28;20454;-83
2021/07/09 07:07:54;;;;;;;24.47;21.87;;;19.70;99.90;;;;;;4996650;28;20469;-83
2021/07/09 07:10:23;;;;;;;26.37;23.67;;;19.70;99.90;;;;;;5013873;28;20490;-84
2021/07/09 07:12:50;;;;;;;24.33;21.90;;;19.60;99.90;;;;;;5014174;28;20450;-83
2021/07/09 07:15:21;;;;;;;25.27;22.77;;;19.60;99.90;;;;;;4997976;28;20450;-83
2021/07/09 07:17:47;;;;;;;26.40;23.60;;;19.50;99.90;;;;;;5015854;28;20450;-84
2021/07/09 07:20:14;;;;;;;26.53;23.90;;;19.60;99.90;;;;;;4998347;28;20818;-83
2021/07/09 07:22:41;;;;;;;24.30;21.70;;;19.70;99.90;;;;;;5018682;28;20552;-83
2021/07/09 07:25:11;;;;;;;22.87;20.63;;;19.70;99.90;;;;;;5012831;28;20524;-82
2021/07/09 07:27:40;;;;;;;23.40;21.20;;;19.80;99.90;;;;;;5016765;28;20485;-84
2021/07/09 07:30:08;;;;;;;22.17;19.77;;;19.80;99.90;;;;;;5029014;28;20481;-80
2021/07/09 07:32:34;;;;;;;22.07;19.97;;;20.00;99.90;;;;;;5025372;28;20654;-84
2021/07/09 07:35:02;;;;;;;22.47;20.07;;;20.00;99.90;;;;;;4996644;28;20522;-83
2021/07/09 07:37:30;;;;;;;22.03;19.93;;;20.00;99.90;;;;;;4982769;28;20574;-82
2021/07/09 07:39:57;;;;;;;25.30;22.43;;;20.10;99.90;;;;;;4995384;28;20465;-83
2021/07/09 07:42:23;;;;;;;24.47;21.90;;;20.30;99.90;;;;;;5015281;28;20565;-82
2021/07/09 07:44:52;;;;;;;24.10;21.60;;;20.40;99.90;;;;;;4998709;28;20442;-83
2021/07/09 07:47:21;;;;;;;25.10;22.60;;;20.30;99.90;;;;;;4997998;28;20446;-84
2021/07/09 07:49:48;;;;;;;29.30;24.97;;;20.40;99.90;;;;;;4998637;28;20470;-82
2021/07/09 07:52:15;;;;;;;30.00;25.60;;;20.40;99.90;;;;;;5011442;28;20539;-82
2021/07/09 07:54:41;;;;;;;28.80;25.57;;;20.40;99.90;;;;;;4998053;28;20465;-83
2021/07/09 07:57:08;;;;;;;30.70;27.30;;;20.30;99.90;;;;;;4992338;28;20591;-82
2021/07/09 07:59:35;;;;;;;31.40;25.67;;;20.30;99.90;;;;;;4996744;28;20479;-83
2021/07/09 08:02:02;;;;;;;25.80;23.20;;;20.30;99.90;;;;;;5015673;28;20481;-83
2021/07/09 08:04:33;;;;;;;28.73;24.30;;;20.20;99.90;;;;;;5035025;28;20443;-85
2021/07/09 08:07:03;;;;;;;31.23;27.50;;;20.10;99.90;;;;;;5018120;28;20454;-85
2021/07/09 08:09:35;;;;;;;29.50;26.40;;;20.20;99.90;;;;;;5039170;28;20470;-84
2021/07/09 08:12:12;;;;;;;28.00;24.60;;;20.20;99.90;;;;;;5021871;28;20454;-84
2021/07/09 08:14:51;;;;;;;26.80;24.30;;;20.20;99.90;;;;;;5023041;28;20449;-83
2021/07/09 08:17:22;;;;;;;26.60;23.80;;;20.30;99.90;;;;;;5039891;28;20458;-84
2021/07/09 08:20:00;;;;;;;28.10;25.10;;;20.30;99.90;;;;;;5021513;28;20477;-85
2021/07/09 08:22:36;;;;;;;28.10;23.30;;;20.20;99.90;;;;;;5019301;28;20482;-85
2021/07/09 08:25:09;;;;;;;27.40;24.80;;;20.10;99.90;;;;;;5013757;28;20544;-85
2021/07/09 08:27:47;;;;;;;29.10;23.13;;;20.10;99.90;;;;;;4999158;28;20554;-83
2021/07/09 08:30:34;;;;;;;25.43;22.83;;;20.10;99.90;;;;;;5015960;28;20478;-83
2021/07/09 08:33:00;;;;;;;26.73;22.43;;;20.10;99.90;;;;;;5002331;28;20461;-83
2021/07/09 08:35:28;;;;;;;27.73;24.10;;;20.10;99.90;;;;;;5019112;28;20469;-84
2021/07/09 08:37:55;;;;;;;25.50;22.70;;;20.10;99.90;;;;;;5000101;28;20505;-84
2021/07/09 08:40:22;;;;;;;27.07;24.27;;;20.10;99.90;;;;;;5011458;28;20477;-83
2021/07/09 08:42:48;;;;;;;25.77;23.23;;;20.20;99.90;;;;;;5016103;28;20481;-84
2021/07/09 08:45:15;;;;;;;31.10;24.70;;;20.20;99.90;;;;;;4992053;28;20940;-84
2021/07/09 08:47:43;;;;;;;26.80;24.00;;;20.20;99.90;;;;;;5010404;28;20455;-85
2021/07/09 08:50:11;;;;;;;25.60;23.03;;;20.20;99.90;;;;;;5008963;28;20472;-85
2021/07/09 08:52:40;;;;;;;26.30;23.90;;;20.20;99.90;;;;;;4987139;28;20464;-85
2021/07/09 08:55:11;;;;;;;26.30;23.50;;;20.30;99.90;;;;;;5011790;28;20458;-84
2021/07/09 08:57:45;;;;;;;24.63;22.07;;;20.50;99.90;;;;;;4990888;28;20514;-84
2021/07/09 09:00:26;;;;;;;26.97;22.70;;;20.60;99.90;;;;;;4989470;28;21137;-84
2021/07/09 09:02:53;;;;;;;24.90;22.47;;;20.80;99.90;;;;;;5014136;28;20486;-85
2021/07/09 09:05:25;;;;;;;26.67;23.87;;;20.90;99.90;;;;;;5025374;28;20485;-83
2021/07/09 09:08:00;;;;;;;25.90;23.30;;;21.00;99.90;;;;;;5007594;28;20466;-83
2021/07/09 09:10:44;;;;;;;29.37;22.67;;;21.00;99.90;;;;;;5013175;28;20477;-82
2021/07/09 09:13:32;;;;;;;25.10;21.50;;;20.90;99.90;;;;;;4989873;28;20450;-82
2021/07/09 09:16:11;;;;;;;30.47;21.17;;;20.80;99.90;;;;;;5015905;28;20466;-82
2021/07/09 09:18:45;;;;;;;24.93;21.47;;;20.80;99.90;;;;;;4999615;28;20574;-82
2021/07/09 09:21:17;;;;;;;23.73;21.20;;;20.70;99.90;;;;;;5021082;28;20844;-83
2021/07/09 09:23:50;;;;;;;23.50;18.73;;;20.80;99.90;;;;;;4986661;28;20913;-83
2021/07/09 09:26:40;;;;;;;23.00;18.90;;;20.80;99.90;;;;;;5009500;28;20484;-83
2021/07/09 09:29:14;;;;;;;20.43;16.80;;;20.80;99.90;;;;;;5033907;28;20469;-82
2021/07/09 09:31:41;;;;;;;18.87;17.00;;;20.80;99.90;;;;;;5005592;28;20459;-82
2021/07/09 09:38:04;;;;;;;19.07;15.47;;;21.10;99.90;;;;;;5015902;28;20549;-83
2021/07/09 09:41:53;;;;;;;14.83;13.33;;;21.40;99.90;;;;;;5002145;28;21006;-85
2021/07/09 09:44:38;;;;;;;15.33;12.43;;;21.40;99.90;;;;;;4999263;28;20462;-84
2021/07/09 09:47:17;;;;;;;15.30;12.43;;;21.50;99.90;;;;;;5006131;28;20455;-85
2021/07/09 09:49:45;;;;;;;13.60;12.23;;;21.50;99.90;;;;;;5004684;28;20493;-86
2021/07/09 09:52:14;;;;;;;15.17;13.27;;;21.40;99.90;;;;;;5007655;28;20451;-85
2021/07/09 09:55:20;;;;;;;13.60;11.63;;;21.50;99.90;;;;;;4994291;28;20438;-85
2021/07/09 09:57:48;;;;;;;13.63;11.47;;;21.70;99.90;;;;;;5021920;28;20935;-82
2021/07/09 10:00:21;;;;;;;14.80;13.07;;;21.80;99.90;;;;;;5026669;28;20510;-84
2021/07/09 10:03:11;;;;;;;16.03;13.50;;;21.70;99.90;;;;;;5009581;28;20477;-83
2021/07/09 10:05:40;;;;;;;14.10;12.60;;;21.70;99.90;;;;;;5012614;28;20512;-84
2021/07/09 10:08:15;;;;;;;14.37;12.60;;;21.70;99.90;;;;;;4987522;28;20447;-84
2021/07/09 10:10:43;;;;;;;14.53;12.70;;;21.70;99.90;;;;;;4998120;28;20485;-85
2021/07/09 10:13:18;;;;;;;15.17;13.57;;;21.60;99.90;;;;;;4325614;28;10000717;-85
2021/07/09 10:15:50;;;;;;;16.33;12.57;;;21.60;99.90;;;;;;5029046;28;20205;-84
2021/07/09 10:18:19;;;;;;;13.90;12.50;;;21.60;99.90;;;;;;5028136;28;20454;-85
2021/07/09 10:20:47;;;;;;;13.07;10.90;;;21.60;99.90;;;;;;5028558;28;20505;-84
2021/07/09 10:23:17;;;;;;;13.97;12.50;;;21.70;99.90;;;;;;5008726;28;21031;-84
2021/07/09 10:25:49;;;;;;;14.97;12.40;;;21.70;99.90;;;;;;5022254;28;20445;-84
2021/07/09 10:32:07;;;;;;;16.10;11.80;;;21.60;99.90;;;;;;5005079;28;20452;-83
2021/07/09 10:34:41;;;;;;;12.03;10.83;;;21.70;99.90;;;;;;4995596;28;20454;-84
2021/07/09 10:37:21;;;;;;;17.03;11.00;;;21.60;99.90;;;;;;4996194;28;20457;-85
2021/07/09 10:40:02;;;;;;;13.30;9.60;;;21.70;99.90;;;;;;5013078;28;20938;-82
2021/07/09 10:42:40;;;;;;;11.53;9.60;;;21.60;99.90;;;;;;4979756;28;20493;-84
2021/07/09 10:45:18;;;;;;;13.23;9.70;;;21.60;99.90;;;;;;4980304;28;20459;-83
2021/07/09 10:48:37;;;;;;;15.33;10.97;;;21.60;99.90;;;;;;4937388;29;20450;-84
2021/07/09 11:07:19;;;;;;;10.17;8.70;;;23.20;98.00;;;;;;4724777;30;20552;-83
2021/07/09 11:09:59;;;;;;;12.50;10.57;;;23.10;97.70;;;;;;4736351;30;20579;-84
2021/07/09 11:12:40;;;;;;;10.27;8.97;;;22.90;97.80;;;;;;4856130;28;20462;-85
2021/07/09 11:15:16;;;;;;;10.77;9.67;;;22.90;97.60;;;;;;4999132;28;20558;-84
2021/07/09 11:17:44;;;;;;;11.17;8.83;;;23.40;97.40;;;;;;5016003;28;20477;-85
2021/07/09 11:23:05;;;;;;;14.13;10.00;;;23.50;96.80;;;;;;5153531;23;20494;-84
2021/07/09 11:33:11;;;;;;;9.97;8.90;;;23.30;96.60;;;;;;4840994;29;20541;-84
2021/07/09 11:57:11;;;;;;;9.37;8.47;;;23.20;94.10;;;;;;4935277;29;21058;-83
2021/07/09 12:00:17;;;;;;;11.90;9.80;;;23.20;94.10;;;;;;4921396;29;20529;-84
2021/07/09 12:02:46;;;;;;;9.80;8.83;;;23.30;94.20;;;;;;4934647;29;20474;-85
2021/07/09 12:11:30;;;;;;;11.50;10.30;;;23.30;94.90;;;;;;5022902;23;20501;-83
2021/07/09 12:14:11;;;;;;;14.83;10.47;;;23.30;94.40;;;;;;5016742;28;20920;-83
2021/07/09 12:17:21;;;;;;;9.93;9.07;;;23.30;93.80;;;;;;5037016;28;20429;-85
2021/07/09 12:20:34;;;;;;;10.60;9.60;;;23.40;93.60;;;;;;4961343;28;20469;-84
2021/07/09 12:23:33;;;;;;;11.30;10.10;;;23.60;93.40;;;;;;5014122;28;20473;-86
2021/07/09 12:26:20;;;;;;;9.00;8.20;;;23.60;92.50;;;;;;5002660;28;20458;-85
2021/07/09 12:29:21;;;;;;;12.37;8.37;;;23.60;94.00;;;;;;4941611;29;20488;-86
2021/07/09 12:32:46;;;;;;;10.10;8.00;;;23.50;95.00;;;;;;4940064;29;20507;-84
2021/07/09 12:42:38;;;;;;;8.37;7.57;;;23.60;95.50;;;;;;4835378;29;20977;-84
2021/07/09 12:45:33;;;;;;;7.60;6.90;;;23.40;95.10;;;;;;4916213;29;20439;-84
2021/07/09 12:48:03;;;;;;;8.10;7.30;;;23.30;95.10;;;;;;4966094;29;20472;-84
2021/07/09 12:50:33;;;;;;;7.40;6.60;;;23.40;94.90;;;;;;4951451;29;20480;-85
2021/07/09 12:53:29;;;;;;;7.80;6.23;;;23.40;94.70;;;;;;4957961;28;20460;-85
2021/07/09 12:55:55;;;;;;;9.50;5.87;;;23.50;94.40;;;;;;4967407;28;20497;-85
2021/07/09 12:58:29;;;;;;;7.43;5.87;;;23.60;94.30;;;;;;4972645;28;20445;-85
2021/07/09 13:01:06;;;;;;;7.63;6.80;;;23.80;94.10;;;;;;4956155;28;20451;-84
2021/07/09 13:03:34;;;;;;;5.77;5.20;;;24.00;93.60;;;;;;4966802;28;20526;-84
2021/07/09 13:06:09;;;;;;;5.97;5.17;;;24.10;93.20;;;;;;4997001;28;20430;-84
2021/07/09 13:13:56;;;;;;;5.63;5.00;;;24.30;92.40;;;;;;4987484;28;20474;-83
2021/07/09 13:16:28;;;;;;;5.03;4.63;;;25.10;91.60;;;;;;4984743;28;20467;-84
2021/07/09 13:19:00;;;;;;;8.60;4.93;;;25.20;91.00;;;;;;4994261;28;20477;-84
2021/07/09 13:21:28;;;;;;;7.60;5.83;;;25.20;90.20;;;;;;5013774;28;20473;-83
2021/07/09 13:24:05;;;;;;;6.27;5.67;;;25.10;90.00;;;;;;4999799;28;20505;-84
2021/07/09 13:26:49;;;;;;;5.20;4.70;;;25.10;88.00;;;;;;4986170;28;20481;-85
2021/07/09 13:29:21;;;;;;;5.67;5.17;;;25.30;89.10;;;;;;5019090;28;20494;-84
2021/07/09 13:31:59;;;;;;;5.30;4.93;;;25.50;88.30;;;;;;5023163;28;20450;-84
2021/07/09 13:34:27;;;;;;;5.70;5.20;;;25.60;86.70;;;;;;5020865;28;20455;-84
2021/07/09 13:36:55;;;;;;;5.00;4.60;;;25.70;86.40;;;;;;5037434;28;20450;-85
2021/07/09 13:39:22;;;;;;;5.33;4.83;;;26.20;84.90;;;;;;5010972;28;20555;-85
2021/07/09 13:41:49;;;;;;;4.87;4.40;;;27.20;81.20;;;;;;5029992;28;20451;-84
2021/07/09 13:44:23;;;;;;;6.07;5.57;;;27.70;77.70;;;;;;5049017;28;20449;-84
2021/07/09 13:46:53;;;;;;;6.10;5.50;;;27.30;77.90;;;;;;5044366;28;20449;-83
2021/07/09 13:50:13;;;;;;;;;;;;;;;;;;;;;
2021/07/09 13:53:39;;;;;;;5.23;4.83;;;26.10;81.00;;;;;;5019789;28;20481;-86
2021/07/09 13:56:06;;;;;;;5.80;5.37;;;26.00;81.60;;;;;;5037171;28;20430;-85
2021/07/09 13:58:33;;;;;;;5.97;5.43;;;26.10;81.90;;;;;;5020863;28;20454;-85
2021/07/09 14:01:00;;;;;;;5.90;5.33;;;26.20;81.90;;;;;;5018702;28;20513;-84
2021/07/09 14:03:27;;;;;;;6.87;6.27;;;26.00;82.20;;;;;;5043093;28;20563;-86
2021/07/09 14:05:54;;;;;;;7.47;5.50;;;26.00;81.80;;;;;;5033531;28;20614;-85
2021/07/09 14:08:21;;;;;;;6.47;5.60;;;26.00;82.00;;;;;;5019620;28;20458;-83
2021/07/09 14:10:49;;;;;;;7.43;6.33;;;26.10;82.50;;;;;;5003182;28;20496;-85